createdAt,value
2022-10-19T08:22:05.385Z,100780.91
2022-10-19T08:24:08.651Z,100839.72
2022-10-19T08:26:10.863Z,100856.34
2022-10-19T08:28:13.225Z,100849.06
2022-10-19T08:30:15.719Z,100860.53
2022-10-19T08:32:18.645Z,100869.97
2022-10-19T08:34:21.705Z,100866.94
2022-10-19T08:36:24.501Z,100862.69
2022-10-19T08:38:26.754Z,100866.00
2022-10-19T08:40:31.255Z,100872.34
2022-10-19T08:43:11.889Z,100873.69
2022-10-19T08:45:33.491Z,100874.72
2022-10-19T08:47:54.147Z,100880.44
2022-10-19T08:49:57.650Z,100893.19
2022-10-19T08:52:04.455Z,100889.25
2022-10-19T08:54:15.747Z,100884.41
2022-10-19T08:56:51.103Z,100889.84
2022-10-19T08:59:11.751Z,100897.22
2022-10-19T09:01:37.554Z,100896.12
2022-10-19T09:04:21.300Z,100901.72
2022-10-19T09:06:34.228Z,100911.47
2022-10-19T09:08:38.995Z,100900.09
2022-10-19T09:10:44.112Z,100902.78
2022-10-19T09:13:05.464Z,100910.69
2022-10-19T09:15:12.957Z,100921.03
2022-10-19T09:17:17.220Z,100921.66
2022-10-19T09:19:29.232Z,100921.03
2022-10-19T09:21:47.898Z,100916.31
2022-10-19T09:24:02.810Z,100920.09
2022-10-19T09:26:15.144Z,100928.53
2022-10-19T09:28:17.366Z,100932.63
2022-10-19T09:30:24.231Z,100939.38
2022-10-19T09:32:37.011Z,100950.00
2022-10-19T09:34:51.680Z,100952.94
2022-10-19T09:36:57.276Z,100951.16
2022-10-19T09:39:02.751Z,100948.50
2022-10-19T09:41:16.770Z,100960.25
2022-10-19T09:43:21.784Z,100960.38
2022-10-19T09:45:35.884Z,100964.69
2022-10-19T09:47:42.467Z,100976.28
2022-10-19T09:49:47.787Z,100980.53
2022-10-19T09:51:52.797Z,100985.78
2022-10-19T09:53:55.967Z,100987.09
2022-10-19T09:56:03.089Z,100987.69
2022-10-19T09:58:05.581Z,100989.13
2022-10-19T10:00:31.662Z,101008.66
2022-10-19T10:02:37.518Z,101005.06
2022-10-19T10:04:40.267Z,101005.28
2022-10-19T10:06:44.742Z,101011.22
2022-10-19T10:08:58.084Z,101013.25
2022-10-19T10:11:44.096Z,101005.19
2022-10-19T10:13:52.349Z,101003.72
2022-10-19T10:15:58.881Z,101011.72
2022-10-19T10:18:01.180Z,101011.59
2022-10-19T10:20:18.047Z,101008.94
2022-10-19T10:22:32.143Z,100997.03
2022-10-19T10:24:34.700Z,101005.22
2022-10-19T10:26:43.905Z,100996.16
2022-10-19T10:28:48.775Z,100992.31
2022-10-19T10:30:59.839Z,100989.31
2022-10-19T10:33:13.466Z,101001.97
2022-10-19T10:35:36.024Z,101005.59
2022-10-19T10:37:45.547Z,101006.31
2022-10-19T10:39:52.573Z,101022.66
2022-10-19T10:42:00.049Z,101043.41
2022-10-19T10:44:07.135Z,101047.56
2022-10-19T10:46:16.889Z,101049.03
2022-10-19T10:48:36.209Z,101048.97
2022-10-19T10:50:38.639Z,101043.41
2022-10-19T10:52:55.485Z,101050.84
2022-10-19T10:55:04.752Z,101056.41
2022-10-19T10:57:20.612Z,101043.34
2022-10-19T10:59:28.847Z,101048.34
2022-10-19T11:01:40.149Z,101057.81
2022-10-19T11:03:49.790Z,101054.13
2022-10-19T11:05:57.552Z,101074.25
2022-10-19T11:08:12.031Z,101086.28
2022-10-19T11:10:24.115Z,101119.31
2022-10-19T11:12:46.554Z,101137.75
2022-10-19T11:14:51.142Z,101158.47
2022-10-19T11:16:56.847Z,101162.09
2022-10-19T11:19:18.752Z,101175.00
2022-10-19T11:21:44.338Z,101160.06
2022-10-19T11:24:05.405Z,101156.66
2022-10-19T11:26:38.453Z,101151.81
2022-10-19T11:29:12.838Z,101163.31
2022-10-19T11:31:21.308Z,101169.09
2022-10-19T11:33:37.497Z,101142.13
2022-10-19T11:35:55.027Z,101144.59
2022-10-19T11:38:30.243Z,101130.38
2022-10-19T11:40:54.277Z,101109.84
2022-10-19T11:43:14.720Z,101111.19
2022-10-19T11:45:39.004Z,101115.91
2022-10-19T11:48:09.858Z,101127.66
2022-10-19T11:50:33.447Z,101116.38
2022-10-19T11:52:59.618Z,101112.06
2022-10-19T11:55:23.857Z,101112.53
2022-10-19T11:57:32.751Z,101095.09
2022-10-19T11:59:47.430Z,101102.94
2022-10-19T12:02:17.683Z,101095.50
2022-10-19T12:04:28.622Z,101102.47
2022-10-19T12:06:56.080Z,101076.50
2022-10-19T12:09:06.805Z,101065.16
2022-10-19T12:11:50.611Z,101052.88
2022-10-19T12:13:57.404Z,101030.03
2022-10-19T12:16:01.031Z,101018.59
2022-10-19T12:18:34.568Z,101022.50
2022-10-19T12:20:46.819Z,101019.63
2022-10-19T12:22:49.756Z,101020.81
2022-10-19T12:24:55.523Z,101018.00
2022-10-19T12:26:59.828Z,101024.69
2022-10-19T12:29:07.143Z,101028.44
2022-10-19T12:31:11.489Z,101035.84
2022-10-19T12:33:23.367Z,101028.50
2022-10-19T12:35:31.275Z,101015.94
2022-10-19T12:37:47.469Z,101014.75
2022-10-19T12:39:58.154Z,101001.75
2022-10-19T12:42:20.169Z,101003.78
2022-10-19T12:45:00.294Z,100984.62
2022-10-19T12:47:15.422Z,100999.34
2022-10-19T12:49:27.031Z,100990.78
2022-10-19T12:51:29.535Z,100988.50
2022-10-19T12:53:41.332Z,100982.09
2022-10-19T12:55:45.666Z,100994.16
2022-10-19T12:57:57.143Z,100984.16
2022-10-19T13:00:03.786Z,100993.66
2022-10-19T13:02:25.545Z,100989.31
2022-10-19T13:04:31.491Z,100985.38
2022-10-19T13:06:36.777Z,100986.56
2022-10-19T13:08:46.367Z,100985.47
2022-10-19T13:11:14.770Z,100991.97
2022-10-19T13:13:58.592Z,100989.72
2022-10-19T13:16:01.137Z,100974.66
2022-10-19T13:18:16.825Z,100981.50
2022-10-19T13:20:19.140Z,101001.38
2022-10-19T13:22:28.600Z,101006.00
2022-10-19T13:24:34.414Z,100993.59
2022-10-19T13:26:37.597Z,100998.50
2022-10-19T13:28:53.341Z,101002.31
2022-10-19T13:31:04.983Z,101006.44
2022-10-19T13:33:33.131Z,101004.62
2022-10-19T13:35:36.096Z,101009.66
2022-10-19T13:37:38.441Z,100997.16
2022-10-19T13:39:42.414Z,101003.34
2022-10-19T13:41:48.880Z,101001.81
2022-10-19T13:44:09.186Z,101000.47
2022-10-19T13:46:43.306Z,100989.50
2022-10-19T13:49:01.233Z,100987.00
2022-10-19T13:51:10.599Z,100977.75
2022-10-19T13:53:40.920Z,100976.88
2022-10-19T13:56:08.121Z,100979.25
2022-10-19T13:58:34.920Z,100964.41
2022-10-19T14:01:22.321Z,100967.84
2022-10-19T14:03:46.682Z,100955.28
2022-10-19T14:06:00.345Z,100953.88
2022-10-19T14:08:39.880Z,100956.75
2022-10-19T14:11:01.142Z,100945.66
2022-10-19T14:13:06.593Z,100938.94
2022-10-19T14:15:18.174Z,100946.03
2022-10-19T14:17:27.957Z,100941.16
2022-10-19T14:19:43.433Z,100951.00
2022-10-19T14:21:45.710Z,100946.84
2022-10-19T14:23:48.218Z,100952.16
2022-10-19T14:26:20.366Z,100953.38
2022-10-19T14:28:23.757Z,100945.63
2022-10-19T14:30:32.412Z,100950.97
2022-10-19T14:32:35.561Z,100944.06
2022-10-19T14:34:42.801Z,100951.09
2022-10-19T14:36:48.409Z,100945.25
2022-10-19T14:38:54.460Z,100948.00
2022-10-19T14:40:56.785Z,100947.38
2022-10-19T14:43:00.867Z,100946.44
2022-10-19T14:45:03.857Z,100944.66
2022-10-19T14:47:18.428Z,100949.41
2022-10-19T14:49:20.968Z,100950.69
2022-10-19T14:51:38.659Z,100949.63
2022-10-19T14:53:46.966Z,100942.97
2022-10-19T14:55:54.051Z,100960.81
2022-10-19T14:57:56.530Z,100951.44
2022-10-19T15:00:02.644Z,100956.19
2022-10-19T15:02:16.775Z,100960.19
2022-10-19T15:04:26.596Z,100948.87
2022-10-19T15:06:32.808Z,100963.53
2022-10-19T15:08:42.706Z,100953.62
2022-10-19T15:10:47.185Z,100962.72
2022-10-19T15:12:51.700Z,100955.31
2022-10-19T15:14:55.228Z,100954.06
2022-10-19T15:17:03.552Z,100953.31
2022-10-19T15:19:14.352Z,100976.69
2022-10-19T15:21:21.654Z,100960.50
2022-10-19T15:23:34.786Z,100954.78
2022-10-19T15:25:39.579Z,100951.44
2022-10-19T15:27:47.161Z,100956.16
2022-10-19T15:30:21.494Z,100944.31
2022-10-19T15:32:30.059Z,100957.81
2022-10-19T15:34:32.755Z,100966.09
2022-10-19T15:36:35.017Z,100958.91
2022-10-19T15:38:37.370Z,100945.91
2022-10-19T15:40:42.316Z,100946.75
2022-10-19T15:42:46.902Z,100940.84
2022-10-19T15:44:49.223Z,100923.94
2022-10-19T15:47:13.402Z,100933.72
2022-10-19T15:49:15.527Z,100946.81
2022-10-19T15:51:27.538Z,100946.34
2022-10-19T15:53:30.043Z,100952.94
2022-10-19T15:55:32.619Z,100958.13
2022-10-19T15:57:37.355Z,100959.03
2022-10-19T15:59:41.398Z,100944.50
2022-10-19T16:01:45.321Z,100957.84
2022-10-19T16:03:49.856Z,100946.94
2022-10-19T16:05:52.174Z,100946.31
2022-10-19T16:07:55.030Z,100949.97
2022-10-19T16:09:58.034Z,100940.00
2022-10-19T16:12:00.370Z,100953.00
2022-10-19T16:14:02.840Z,100971.03
2022-10-19T16:16:11.219Z,100978.94
2022-10-19T16:18:13.726Z,100981.97
2022-10-19T16:20:18.850Z,100996.19
2022-10-19T16:22:21.537Z,101000.69
2022-10-19T16:24:23.866Z,100986.88
2022-10-19T16:26:26.701Z,100998.34
2022-10-19T16:28:29.642Z,100994.94
2022-10-19T16:30:35.033Z,100999.63
2022-10-19T16:32:38.460Z,100997.00
2022-10-19T16:34:41.490Z,100995.12
2022-10-19T16:36:43.721Z,100984.38
2022-10-19T16:38:47.352Z,100969.56
2022-10-19T16:40:50.420Z,100960.44
2022-10-19T16:42:52.695Z,100961.72
2022-10-19T16:44:55.590Z,100970.56
2022-10-19T16:46:59.113Z,100975.72
2022-10-19T16:49:01.726Z,100988.97
2022-10-19T16:51:07.379Z,101000.59
2022-10-19T16:53:11.140Z,101003.31
2022-10-19T16:55:13.809Z,101006.97
2022-10-19T16:57:16.015Z,101006.41
2022-10-19T16:59:19.529Z,100997.56
2022-10-19T17:01:22.842Z,100990.13
2022-10-19T17:03:25.464Z,100992.84
2022-10-19T17:05:28.204Z,100993.69
2022-10-19T17:07:30.578Z,100993.19
2022-10-19T17:09:42.145Z,101001.06
2022-10-19T17:11:46.020Z,101000.06
2022-10-19T17:13:50.841Z,101007.50
2022-10-19T17:15:53.217Z,101007.59
2022-10-19T17:17:58.471Z,101015.34
2022-10-19T17:20:01.091Z,101016.63
2022-10-19T17:22:05.454Z,101011.00
2022-10-19T17:24:15.582Z,101010.50
2022-10-19T17:26:25.359Z,101009.91
2022-10-19T17:28:28.638Z,101015.34
2022-10-19T17:30:31.482Z,101023.31
2022-10-19T17:32:34.412Z,101021.69
2022-10-19T17:34:37.918Z,101015.63
2022-10-19T17:36:45.090Z,101022.56
2022-10-19T17:38:48.572Z,101028.97
2022-10-19T17:40:51.353Z,101020.50
2022-10-19T17:42:54.573Z,101018.88
2022-10-19T17:44:57.480Z,101018.41
2022-10-19T17:47:01.457Z,101021.50
2022-10-19T17:49:06.947Z,101019.63
2022-10-19T17:51:21.043Z,101018.97
2022-10-19T17:53:23.434Z,101014.41
2022-10-19T17:55:27.559Z,101012.84
2022-10-19T17:57:30.221Z,101008.56
2022-10-19T17:59:46.766Z,101014.09
2022-10-19T18:01:55.472Z,100998.34
2022-10-19T18:03:58.146Z,101013.41
2022-10-19T18:06:13.021Z,101014.84
2022-10-19T18:08:15.733Z,101009.59
2022-10-19T18:10:18.349Z,101002.75
2022-10-19T18:12:21.394Z,101004.59
2022-10-19T18:14:23.741Z,100989.53
2022-10-19T18:16:32.770Z,101000.97
2022-10-19T18:18:37.758Z,101004.69
2022-10-19T18:20:40.941Z,101012.81
2022-10-19T18:22:46.219Z,101019.97
2022-10-19T18:24:50.592Z,101019.53
2022-10-19T18:26:53.394Z,101024.00
2022-10-19T18:28:58.496Z,101024.91
2022-10-19T18:31:21.996Z,101024.25
2022-10-19T18:33:29.096Z,101025.25
2022-10-19T18:35:39.947Z,101027.19
2022-10-19T18:37:42.767Z,101015.00
2022-10-19T18:39:45.551Z,101007.31
2022-10-19T18:41:52.714Z,101011.59
2022-10-19T18:43:58.067Z,101012.69
2022-10-19T18:46:01.503Z,101015.25
2022-10-19T18:48:04.709Z,101021.66
2022-10-19T18:50:07.689Z,101029.59
2022-10-19T18:52:10.973Z,101038.44
2022-10-19T18:54:15.822Z,101033.00
2022-10-19T18:56:20.609Z,101044.63
2022-10-19T18:58:23.971Z,101053.28
2022-10-19T19:00:27.541Z,101070.75
2022-10-19T19:02:42.227Z,101071.00
2022-10-19T19:04:48.934Z,101071.47
2022-10-19T19:06:52.480Z,101071.47
2022-10-19T19:08:59.939Z,101082.72
2022-10-19T19:11:24.845Z,101077.63
2022-10-19T19:13:31.038Z,101069.69
2022-10-19T19:15:33.694Z,101072.38
2022-10-19T19:17:37.215Z,101080.56
2022-10-19T19:19:41.317Z,101077.37
2022-10-19T19:21:45.106Z,101066.81
2022-10-19T19:23:48.719Z,101061.97
2022-10-19T19:25:51.747Z,101070.06
2022-10-19T19:27:54.126Z,101067.16
2022-10-19T19:29:58.885Z,101063.19
2022-10-19T19:32:05.073Z,101073.91
2022-10-19T19:34:10.446Z,101077.28
2022-10-19T19:36:15.698Z,101073.12
2022-10-19T19:38:18.851Z,101077.59
2022-10-19T19:40:21.759Z,101088.31
2022-10-19T19:42:27.738Z,101099.03
2022-10-19T19:44:31.991Z,101106.88
2022-10-19T19:46:35.529Z,101114.13
2022-10-19T19:48:39.298Z,101124.69
2022-10-19T19:50:47.515Z,101125.69
2022-10-19T19:52:58.620Z,101136.31
2022-10-19T19:57:06.571Z,101133.41
2022-10-19T19:59:11.491Z,101134.28
2022-10-19T20:01:20.077Z,101140.53
2022-10-19T20:03:23.242Z,101150.12
2022-10-19T20:05:32.678Z,101145.44
2022-10-19T20:07:38.954Z,101139.34
2022-10-19T20:09:47.288Z,101149.97
2022-10-19T20:11:49.978Z,101145.66
2022-10-19T20:13:53.332Z,101154.78
2022-10-19T20:15:56.479Z,101155.50
2022-10-19T20:17:59.307Z,101166.09
2022-10-19T20:20:02.068Z,101163.63
2022-10-19T20:22:06.774Z,101165.44
2022-10-19T20:24:10.521Z,101168.28
2022-10-19T20:26:21.419Z,101170.31
2022-10-19T20:28:25.882Z,101174.31
2022-10-19T20:30:28.184Z,101180.19
2022-10-19T20:32:30.500Z,101185.56
2022-10-19T20:34:35.772Z,101191.38
2022-10-19T20:36:38.599Z,101186.47
2022-10-19T20:38:46.699Z,101190.88
2022-10-19T20:40:49.480Z,101194.31
2022-10-19T20:42:52.120Z,101196.09
2022-10-19T20:44:55.920Z,101195.47
2022-10-19T20:46:58.573Z,101198.91
2022-10-19T20:49:01.725Z,101197.50
2022-10-19T20:51:30.574Z,101194.88
2022-10-19T20:53:35.306Z,101206.47
2022-10-19T20:55:37.563Z,101207.41
2022-10-19T20:57:40.153Z,101208.16
2022-10-19T20:59:43.976Z,101209.75
2022-10-19T21:01:50.539Z,101204.06
2022-10-19T21:03:55.167Z,101203.34
2022-10-19T21:05:57.697Z,101213.28
2022-10-19T21:08:00.017Z,101212.50
2022-10-19T21:10:02.511Z,101211.31
2022-10-19T21:12:05.035Z,101205.38
2022-10-19T21:14:11.677Z,101203.13
2022-10-19T21:16:18.647Z,101210.13
2022-10-19T21:18:21.374Z,101219.41
2022-10-19T21:20:23.647Z,101215.50
2022-10-19T21:22:25.863Z,101217.38
2022-10-19T21:24:34.459Z,101206.97
2022-10-19T21:26:39.143Z,101202.97
2022-10-19T21:28:49.250Z,101197.81
2022-10-19T21:30:51.771Z,101194.06
2022-10-19T21:32:53.979Z,101195.06
